Time;durP1;ratioP1;P1;durP2;ratioP2;P2;SDS_P1;SDS_P2;PMS_P1;PMS_P2;Temp;Humidity;BMP_temperature;BMP_pressure;BME280_temperature;BME280_humidity;BME280_pressure;Samples;Min_cycle;Max_cycle;Signal;HPM_P1;HPM_P2
2023/08/28 00:01:47;;;;;;;1.80;1.70;;;;;;;12.93;100.00;100336.16;5065787;28;20100;-82
2023/08/28 00:04:14;;;;;;;2.58;2.38;;;;;;;12.88;100.00;100336.25;5060080;28;20554;-81
2023/08/28 00:06:40;;;;;;;3.05;2.72;;;;;;;12.83;100.00;100338.16;5054774;28;20043;-82
2023/08/28 00:09:07;;;;;;;2.03;1.92;;;;;;;12.81;100.00;100326.81;5059013;28;20040;-81
2023/08/28 00:11:34;;;;;;;2.30;2.10;;;;;;;12.82;100.00;100325.91;5059748;28;20102;-81
2023/08/28 00:14:01;;;;;;;5.82;3.08;;;;;;;12.81;100.00;100322.41;5056259;28;20041;-83
2023/08/28 00:16:27;;;;;;;4.30;2.65;;;;;;;12.79;100.00;100325.97;5055258;28;20076;-81
2023/08/28 00:18:53;;;;;;;2.75;2.60;;;;;;;12.78;100.00;100326.88;5055720;28;20527;-81
2023/08/28 00:21:20;;;;;;;3.70;2.40;;;;;;;12.73;100.00;100330.47;5054232;28;20480;-82
2023/08/28 00:23:47;;;;;;;3.28;2.38;;;;;;;12.66;100.00;100336.75;5059220;28;20054;-82
2023/08/28 00:26:13;;;;;;;3.58;2.53;;;;;;;12.63;100.00;100331.56;5054619;28;20036;-82
2023/08/28 00:28:39;;;;;;;3.10;2.80;;;;;;;12.60;100.00;100333.41;5058918;28;20182;-81
2023/08/28 00:31:06;;;;;;;3.38;3.08;;;;;;;12.58;100.00;100331.69;5070586;28;20116;-84
2023/08/28 00:33:32;;;;;;;6.43;3.30;;;;;;;12.57;100.00;100334.34;5077674;28;20059;-84
2023/08/28 00:35:59;;;;;;;5.32;2.72;;;;;;;12.53;100.00;100336.19;5080614;28;20091;-83
2023/08/28 00:38:25;;;;;;;4.40;3.08;;;;;;;12.51;100.00;100334.47;5078652;28;20037;-84
2023/08/28 00:40:52;;;;;;;3.67;3.05;;;;;;;12.52;100.00;100325.72;5077260;28;20045;-84
2023/08/28 00:43:18;;;;;;;4.88;3.05;;;;;;;12.54;100.00;100324.78;5068083;28;20037;-82
2023/08/28 00:45:45;;;;;;;4.63;3.47;;;;;;;12.55;100.00;100320.38;5058583;28;20045;-81
2023/08/28 00:48:15;;;;;;;5.43;3.33;;;;;;;12.53;100.00;100327.44;5055895;28;20158;-81
2023/08/28 00:50:42;;;;;;;4.53;4.18;;;;;;;12.53;100.00;100333.56;5062000;28;20044;-81
2023/08/28 00:53:11;;;;;;;3.90;3.10;;;;;;;12.55;100.00;100337.03;5057268;28;20063;-81
2023/08/28 00:55:38;;;;;;;3.78;3.47;;;;;;;12.50;100.00;100341.50;5041764;28;20151;-81
2023/08/28 00:58:04;;;;;;;4.25;3.88;;;;;;;12.51;100.00;100343.22;5062264;28;20036;-81
2023/08/28 01:00:31;;;;;;;4.40;4.00;;;;;;;12.45;100.00;100348.63;5060998;28;20036;-82
2023/08/28 01:02:58;;;;;;;4.13;3.28;;;;;;;12.40;100.00;100353.94;5057150;28;20048;-83
2023/08/28 01:05:36;;;;;;;4.97;4.05;;;;;;;12.39;100.00;100361.88;5061067;28;20040;-84
2023/08/28 01:08:31;;;;;;;4.22;3.83;;;;;;;12.37;100.00;100359.28;5060508;28;20060;-81
2023/08/28 01:11:14;;;;;;;4.00;3.67;;;;;;;12.35;100.00;100362.84;5049768;28;20129;-84
2023/08/28 01:14:10;;;;;;;4.20;3.70;;;;;;;12.36;100.00;100365.41;5059272;28;20040;-83
2023/08/28 01:16:37;;;;;;;13.60;4.05;;;;;;;12.35;100.00;100360.22;5062077;28;20051;-80
2023/08/28 01:19:09;;;;;;;5.57;4.18;;;;;;;12.32;100.00;100365.50;5063070;28;20044;-81
2023/08/28 01:21:37;;;;;;;4.18;3.88;;;;;;;12.31;100.00;100356.78;5062603;28;20044;-82
2023/08/28 01:24:07;;;;;;;4.57;4.00;;;;;;;12.29;100.00;100360.31;5064090;28;20055;-83
2023/08/28 01:26:33;;;;;;;5.22;3.97;;;;;;;12.30;100.00;100367.31;5057846;28;20048;-84
2023/08/28 01:29:00;;;;;;;4.90;3.92;;;;;;;12.28;100.00;100366.47;5059225;28;20056;-82
2023/08/28 01:31:26;;;;;;;3.15;2.83;;;;;;;12.30;100.00;100370.78;5063489;28;20048;-81
2023/08/28 01:33:55;;;;;;;3.88;3.58;;;;;;;12.33;100.00;100382.97;5057639;28;20052;-81
2023/08/28 01:36:30;;;;;;;4.60;4.20;;;;;;;12.33;100.00;100373.38;5056915;28;20171;-81
2023/08/28 01:39:04;;;;;;;4.85;4.30;;;;;;;12.26;100.00;100370.91;5061442;28;20067;-83
2023/08/28 01:41:32;;;;;;;4.65;4.25;;;;;;;12.20;100.00;100369.25;5063792;28;20090;-80
2023/08/28 01:44:02;;;;;;;3.90;3.45;;;;;;;12.11;100.00;100365.06;5059393;28;20912;-81
2023/08/28 01:46:33;;;;;;;5.25;4.47;;;;;;;12.14;100.00;100366.75;5056884;28;20053;-83
2023/08/28 01:49:00;;;;;;;4.72;3.80;;;;;;;12.16;100.00;100364.97;5055143;28;20052;-82
2023/08/28 01:51:26;;;;;;;4.45;4.03;;;;;;;12.16;100.00;100365.84;5065186;28;20045;-84
2023/08/28 01:53:54;;;;;;;8.13;4.78;;;;;;;12.14;100.00;100364.16;5062733;28;20056;-82
2023/08/28 01:56:24;;;;;;;4.72;4.13;;;;;;;12.11;100.00;100362.44;5061139;28;20041;-83
2023/08/28 01:58:55;;;;;;;5.30;4.22;;;;;;;12.10;100.00;100357.19;5060195;28;20037;-83
2023/08/28 02:01:23;;;;;;;5.15;4.65;;;;;;;12.10;100.00;100351.94;5067953;28;20049;-84
2023/08/28 02:03:50;;;;;;;6.75;5.30;;;;;;;12.05;100.00;100359.94;5054031;28;20049;-84
2023/08/28 02:06:17;;;;;;;4.75;4.30;;;;;;;12.08;100.00;100357.25;5065612;28;20040;-82
2023/08/28 02:08:44;;;;;;;5.07;4.57;;;;;;;12.05;100.00;100357.31;5061038;28;20105;-82
2023/08/28 02:11:11;;;;;;;5.85;5.25;;;;;;;12.03;100.00;100359.09;5057273;28;20103;-81
2023/08/28 02:13:38;;;;;;;5.03;4.57;;;;;;;11.99;100.00;100367.91;5061263;28;20221;-81
2023/08/28 02:16:05;;;;;;;8.55;5.15;;;;;;;11.97;100.00;100362.72;5059783;28;20041;-82
2023/08/28 02:18:31;;;;;;;5.50;5.00;;;;;;;11.95;100.00;100364.47;5057575;28;20040;-82
2023/08/28 02:20:58;;;;;;;6.07;4.32;;;;;;;11.94;100.00;100362.72;5065666;28;20043;-81
2023/08/28 02:23:26;;;;;;;8.98;5.22;;;;;;;11.99;100.00;100368.78;5053147;28;20492;-81
2023/08/28 02:25:53;;;;;;;5.00;4.60;;;;;;;11.97;100.00;100356.56;5059294;28;20045;-81
2023/08/28 02:28:20;;;;;;;5.25;4.63;;;;;;;11.96;100.00;100368.84;5068981;28;20045;-81
2023/08/28 02:30:47;;;;;;;6.05;5.45;;;;;;;12.01;100.00;100374.00;5064330;28;20056;-81
2023/08/28 02:33:15;;;;;;;6.18;4.65;;;;;;;12.03;100.00;100380.06;5057355;28;20135;-81
2023/08/28 02:35:41;;;;;;;9.32;5.50;;;;;;;12.02;100.00;100380.97;5062049;28;20033;-81
2023/08/28 02:38:09;;;;;;;8.18;5.82;;;;;;;11.99;100.00;100376.63;5045536;28;20045;-82
2023/08/28 02:40:40;;;;;;;6.32;4.85;;;;;;;11.99;100.00;100370.53;5056496;28;20037;-82
2023/08/28 02:43:07;;;;;;;6.18;5.53;;;;;;;11.96;100.00;100379.34;5059273;28;20813;-82
2023/08/28 02:45:39;;;;;;;7.75;5.38;;;;;;;12.02;100.00;100375.72;5062307;28;20041;-83
2023/08/28 02:48:08;;;;;;;7.60;5.78;;;;;;;12.00;100.00;100370.50;5036228;28;20330;-82
2023/08/28 02:50:36;;;;;;;5.60;5.10;;;;;;;12.02;100.00;100359.97;5054843;28;20102;-82
2023/08/28 02:53:04;;;;;;;5.75;5.25;;;;;;;12.05;100.00;100360.78;5045749;28;20186;-83
2023/08/28 02:55:38;;;;;;;6.07;5.53;;;;;;;12.11;100.00;100361.56;5059821;28;20044;-82
2023/08/28 02:58:04;;;;;;;5.78;4.82;;;;;;;12.16;100.00;100363.22;5056396;28;20078;-81
2023/08/28 03:00:31;;;;;;;6.47;5.80;;;;;;;12.25;100.00;100370.00;5063047;28;20489;-83
2023/08/28 03:02:57;;;;;;;6.65;5.95;;;;;;;12.24;100.00;100370.91;5062799;28;20559;-84
2023/08/28 03:05:24;;;;;;;10.65;7.47;;;;;;;12.24;100.00;100358.66;5063737;28;20064;-81
2023/08/28 03:07:50;;;;;;;7.20;6.00;;;;;;;12.32;100.00;100358.50;5041833;28;20064;-82
2023/08/28 03:10:17;;;;;;;8.63;6.50;;;;;;;12.32;100.00;100348.00;5053625;28;20048;-81
2023/08/28 03:12:44;;;;;;;8.93;5.78;;;;;;;12.37;100.00;100348.78;5061232;28;20126;-80
2023/08/28 03:15:11;;;;;;;10.13;6.70;;;;;;;12.40;100.00;100351.31;5046272;28;20044;-81
2023/08/28 03:17:38;;;;;;;10.27;6.10;;;;;;;12.44;100.00;100362.63;5055597;28;20036;-81
2023/08/28 03:20:05;;;;;;;9.38;6.68;;;;;;;12.49;100.00;100376.53;5051583;28;20040;-81
2023/08/28 03:22:35;;;;;;;6.90;5.88;;;;;;;12.52;100.00;100380.84;5058366;28;20388;-84
2023/08/28 03:25:02;;;;;;;7.30;6.60;;;;;;;12.48;100.00;100385.28;5045648;28;20101;-81
2023/08/28 03:27:29;;;;;;;8.68;6.68;;;;;;;12.46;100.00;100391.47;5063035;28;20036;-80
2023/08/28 03:29:55;;;;;;;7.43;6.63;;;;;;;12.39;100.00;100394.22;5067334;28;20450;-82
2023/08/28 03:32:22;;;;;;;8.10;6.72;;;;;;;12.37;100.00;100389.91;5056063;28;20037;-81
2023/08/28 03:34:48;;;;;;;9.88;6.72;;;;;;;12.37;100.00;100398.66;5060793;28;20037;-80
2023/08/28 03:37:15;;;;;;;6.78;5.93;;;;;;;12.34;100.00;100403.94;5053699;28;20503;-82
2023/08/28 03:39:41;;;;;;;8.15;6.80;;;;;;;12.30;100.00;100412.78;5062130;28;20484;-81
2023/08/28 03:42:08;;;;;;;7.22;6.32;;;;;;;12.27;100.00;100415.47;5057270;28;20048;-82
2023/08/28 03:44:33;;;;;;;7.28;6.53;;;;;;;12.27;100.00;100402.34;5066069;28;20048;-82
2023/08/28 03:47:00;;;;;;;7.47;6.13;;;;;;;12.27;100.00;100394.47;5044075;28;20442;-82
2023/08/28 03:49:28;;;;;;;9.50;6.22;;;;;;;12.25;100.00;100398.88;5066697;28;20055;-82
2023/08/28 03:51:59;;;;;;;7.65;6.00;;;;;;;12.21;100.00;100395.44;5049071;28;20044;-82
2023/08/28 03:54:26;;;;;;;7.28;6.53;;;;;;;12.14;100.00;100390.38;5068705;28;20129;-82
2023/08/28 03:56:53;;;;;;;6.95;6.25;;;;;;;12.12;100.00;100394.78;5062224;28;20521;-82
2023/08/28 03:59:21;;;;;;;6.80;6.15;;;;;;;12.06;100.00;100393.16;5058774;28;20548;-81
2023/08/28 04:01:48;;;;;;;8.82;6.68;;;;;;;12.06;100.00;100393.16;5057182;28;20438;-80
2023/08/28 04:04:16;;;;;;;10.40;7.38;;;;;;;12.00;100.00;100388.88;5069019;28;20049;-84
2023/08/28 04:06:43;;;;;;;9.38;8.27;;;;;;;11.90;100.00;100382.03;5057293;28;20505;-82
2023/08/28 04:09:09;;;;;;;8.57;7.57;;;;;;;11.86;100.00;100368.13;5055015;28;20559;-81
2023/08/28 04:11:36;;;;;;;9.45;7.40;;;;;;;11.86;100.00;100367.25;5053098;28;20040;-80
2023/08/28 04:14:02;;;;;;;10.90;7.32;;;;;;;11.88;100.00;100361.09;5061509;28;20142;-84
2023/08/28 04:16:29;;;;;;;7.70;5.90;;;;;;;11.86;100.00;100351.50;5042055;28;20056;-81
2023/08/28 04:18:56;;;;;;;8.35;7.05;;;;;;;11.85;100.00;100361.16;5056767;28;20037;-84
2023/08/28 04:21:21;;;;;;;8.20;7.40;;;;;;;11.87;100.00;100356.72;5054043;28;20094;-83
2023/08/28 04:23:50;;;;;;;9.68;7.30;;;;;;;11.94;100.00;100362.72;5067135;28;20127;-82
2023/08/28 04:26:17;;;;;;;9.88;7.15;;;;;;;11.91;100.00;100354.91;5052454;28;20044;-82
2023/08/28 04:28:43;;;;;;;7.18;6.40;;;;;;;11.94;100.00;100359.25;5057152;28;20051;-82
2023/08/28 04:31:10;;;;;;;8.48;6.53;;;;;;;11.92;100.00;100354.88;5044850;28;20052;-81
2023/08/28 04:33:37;;;;;;;10.23;6.90;;;;;;;11.96;100.00;100362.75;5062312;28;20045;-83
2023/08/28 04:36:04;;;;;;;7.32;6.63;;;;;;;11.96;100.00;100355.72;5063151;28;20047;-82
2023/08/28 04:38:31;;;;;;;8.88;7.78;;;;;;;12.00;100.00;100346.03;5065634;28;20491;-81
2023/08/28 04:40:57;;;;;;;7.85;7.07;;;;;;;12.05;100.00;100345.03;5064014;28;20040;-81
2023/08/28 04:43:24;;;;;;;15.05;7.32;;;;;;;12.05;100.00;100342.41;5067322;28;20112;-85
2023/08/28 04:45:50;;;;;;;11.68;7.40;;;;;;;12.05;100.00;100344.19;5085487;28;20041;-84
2023/08/28 04:48:19;;;;;;;12.10;7.47;;;;;;;12.10;100.00;100341.47;5085908;28;20037;-81
2023/08/28 04:50:45;;;;;;;8.40;6.85;;;;;;;12.14;100.00;100340.53;5066109;28;20552;-83
2023/08/28 04:53:12;;;;;;;10.35;7.75;;;;;;;12.17;100.00;100343.94;5094016;28;20071;-84
2023/08/28 04:55:40;;;;;;;7.43;6.63;;;;;;;12.21;100.00;100337.72;5083762;28;20060;-82
2023/08/28 04:58:06;;;;;;;9.18;6.53;;;;;;;12.22;100.00;100328.94;5083746;28;20047;-84
2023/08/28 05:00:33;;;;;;;7.93;6.07;;;;;;;12.23;100.00;100332.47;5072202;28;20440;-82
2023/08/28 05:02:59;;;;;;;10.88;6.95;;;;;;;12.26;100.00;100337.63;5062923;28;20051;-81
2023/08/28 05:05:26;;;;;;;9.63;6.72;;;;;;;12.30;100.00;100346.31;5056545;28;20051;-80
2023/08/28 05:07:52;;;;;;;8.10;6.25;;;;;;;12.32;100.00;100340.13;5059232;28;20510;-83
2023/08/28 05:10:19;;;;;;;8.02;6.72;;;;;;;12.35;100.00;100354.97;5069256;28;20047;-83
2023/08/28 05:12:45;;;;;;;6.97;6.15;;;;;;;12.37;100.00;100358.41;5077057;28;20447;-82
2023/08/28 05:15:12;;;;;;;7.05;5.20;;;;;;;12.37;100.00;100359.28;5041690;28;20059;-85
2023/08/28 05:17:39;;;;;;;8.65;6.53;;;;;;;12.43;100.00;100367.91;5059850;28;20118;-81
2023/08/28 05:20:06;;;;;;;7.47;5.90;;;;;;;12.45;100.00;100371.38;5047650;28;20048;-81
2023/08/28 05:22:33;;;;;;;13.45;6.88;;;;;;;12.46;100.00;100381.81;5068824;28;20048;-81
2023/08/28 05:25:00;;;;;;;9.98;6.88;;;;;;;12.47;100.00;100380.09;5065087;28;20033;-82
2023/08/28 05:27:27;;;;;;;7.82;6.78;;;;;;;12.47;100.00;100367.81;5062379;28;21041;-79
2023/08/28 05:29:54;;;;;;;8.98;7.35;;;;;;;12.45;100.00;100368.72;5043585;28;20052;-80
2023/08/28 05:32:20;;;;;;;9.05;7.32;;;;;;;12.51;100.00;100379.13;5058411;28;20100;-81
2023/08/28 05:34:47;;;;;;;8.15;6.32;;;;;;;12.57;100.00;100379.00;5059399;28;20043;-83
2023/08/28 05:37:14;;;;;;;9.13;7.15;;;;;;;12.65;100.00;100379.69;5060302;28;20048;-82
2023/08/28 05:39:40;;;;;;;7.73;6.30;;;;;;;12.71;100.00;100381.28;5060676;28;20447;-81
2023/08/28 05:42:07;;;;;;;9.80;6.07;;;;;;;12.76;100.00;100386.47;5054036;28;20044;-81
2023/08/28 05:44:33;;;;;;;9.68;6.18;;;;;;;12.82;100.00;100396.84;5058086;28;20136;-82
2023/08/28 05:47:00;;;;;;;10.57;7.35;;;;;;;12.81;100.00;100388.06;5061903;28;20045;-84
2023/08/28 05:49:27;;;;;;;13.95;8.15;;;;;;;12.85;100.00;100392.38;5058717;28;20112;-81
2023/08/28 05:51:54;;;;;;;7.57;6.05;;;;;;;12.93;100.00;100391.31;5054049;28;20049;-81
2023/08/28 05:54:20;;;;;;;9.80;6.07;;;;;;;12.94;100.00;100395.69;5057704;28;20045;-81
2023/08/28 05:56:47;;;;;;;7.25;5.20;;;;;;;12.99;100.00;100399.06;5058142;28;20048;-81
2023/08/28 05:59:14;;;;;;;7.15;6.40;;;;;;;13.06;100.00;100408.53;5063490;28;20037;-80
2023/08/28 06:01:40;;;;;;;9.52;6.72;;;;;;;13.13;100.00;100411.88;5072246;28;20044;-82
2023/08/28 06:04:07;;;;;;;11.45;7.43;;;;;;;13.21;100.00;100407.31;5043961;28;20118;-81
2023/08/28 06:06:34;;;;;;;6.47;5.80;;;;;;;13.33;100.00;100403.53;5059860;28;20063;-82
2023/08/28 06:09:04;;;;;;;7.30;5.32;;;;;;;13.46;100.00;100402.34;5063308;28;20036;-80
2023/08/28 06:11:32;;;;;;;8.65;4.60;;;;;;;13.57;100.00;100408.22;5038146;28;20144;-82
2023/08/28 06:14:00;;;;;;;8.07;6.05;;;;;;;13.71;100.00;100399.97;5057627;28;20086;-81
2023/08/28 06:16:27;;;;;;;6.57;5.10;;;;;;;13.84;100.00;100403.13;5045616;28;20507;-82
2023/08/28 06:18:54;;;;;;;7.03;5.00;;;;;;;13.91;100.00;100393.31;5063971;28;20050;-84
2023/08/28 06:21:20;;;;;;;5.28;4.47;;;;;;;13.97;100.00;100403.66;5059112;28;20032;-82
2023/08/28 06:23:47;;;;;;;5.13;3.92;;;;;;;14.02;100.00;100406.19;5054567;28;20040;-83
2023/08/28 06:26:13;;;;;;;4.47;4.00;;;;;;;14.13;100.00;100411.13;5056525;28;20040;-82
2023/08/28 06:28:40;;;;;;;4.78;4.22;;;;;;;14.23;100.00;100416.09;5058100;28;20047;-82
2023/08/28 06:31:06;;;;;;;10.43;4.85;;;;;;;14.30;100.00;100415.94;5057257;28;20056;-82
2023/08/28 06:33:32;;;;;;;5.55;4.95;;;;;;;14.38;100.00;100414.81;5061526;28;20049;-81
2023/08/28 06:35:59;;;;;;;8.63;5.78;;;;;;;14.43;100.00;100419.09;5058591;28;20133;-82
2023/08/28 06:38:27;;;;;;;6.72;6.00;;;;;;;14.46;100.00;100422.50;5058388;28;20097;-80
2023/08/28 06:40:54;;;;;;;8.93;5.88;;;;;;;14.50;100.00;100426.75;5055528;28;20040;-85
2023/08/28 06:43:20;;;;;;;9.20;5.75;;;;;;;14.71;100.00;100421.81;5054324;28;20041;-81
2023/08/28 06:45:47;;;;;;;7.35;6.63;;;;;;;14.99;100.00;100421.84;5058867;28;20103;-84
2023/08/28 06:48:14;;;;;;;9.23;6.25;;;;;;;16.98;91.17;100415.84;5057752;28;20132;-83
2023/08/28 06:50:40;;;;;;;8.10;5.90;;;;;;;18.62;81.33;100408.91;5048425;28;20040;-81
2023/08/28 06:53:07;;;;;;;8.13;7.32;;;;;;;18.92;78.33;100405.78;5061398;28;20064;-81
2023/08/28 06:55:37;;;;;;;8.05;6.43;;;;;;;19.74;74.39;100410.56;5058667;28;20040;-81
2023/08/28 06:58:04;;;;;;;7.97;6.72;;;;;;;20.26;71.11;100412.31;5068186;28;20122;-81
2023/08/28 07:00:30;;;;;;;5.82;5.35;;;;;;;20.13;69.82;100413.94;5060625;28;21463;-80
2023/08/28 07:02:57;;;;;;;7.78;6.28;;;;;;;20.72;69.07;100413.47;5062416;28;20067;-80
2023/08/28 07:05:23;;;;;;;9.75;6.93;;;;;;;21.34;63.97;100409.97;5061623;28;20044;-84
2023/08/28 07:07:50;;;;;;;7.13;6.22;;;;;;;22.22;60.31;100410.97;5059598;28;20111;-84
2023/08/28 07:10:16;;;;;;;6.65;5.95;;;;;;;21.72;60.64;100417.53;5042435;28;20087;-81
2023/08/28 07:12:43;;;;;;;7.38;6.10;;;;;;;22.31;58.98;100418.38;5048992;28;20440;-82
2023/08/28 07:15:18;;;;;;;6.93;6.25;;;;;;;23.22;55.35;100421.63;5063085;28;20502;-82
2023/08/28 07:17:45;;;;;;;7.28;6.07;;;;;;;23.81;52.88;100421.25;5058482;28;20045;-84
2023/08/28 07:20:12;;;;;;;6.60;5.32;;;;;;;24.26;51.48;100421.75;5056267;28;20115;-84
2023/08/28 07:22:38;;;;;;;5.53;4.95;;;;;;;24.45;50.87;100418.59;5054516;28;20032;-82
2023/08/28 07:25:06;;;;;;;7.15;4.80;;;;;;;23.63;53.48;100418.00;5039271;28;20041;-83
2023/08/28 07:27:33;;;;;;;7.03;5.30;;;;;;;23.60;53.18;100410.22;5061756;28;20523;-79
2023/08/28 07:30:00;;;;;;;6.80;5.43;;;;;;;24.55;50.53;100416.13;5060773;28;20048;-82
2023/08/28 07:32:26;;;;;;;4.85;3.90;;;;;;;24.58;49.64;100410.56;5056207;28;20452;-82
2023/08/28 07:34:55;;;;;;;6.03;4.10;;;;;;;23.70;52.01;100413.09;5059341;28;20047;-82
2023/08/28 07:37:22;;;;;;;9.52;4.38;;;;;;;24.00;51.11;100414.66;5044517;28;20044;-81
2023/08/28 07:39:48;;;;;;;4.05;3.47;;;;;;;23.37;53.79;100407.25;5057397;28;20119;-81
2023/08/28 07:42:14;;;;;;;5.28;3.60;;;;;;;24.13;51.07;100409.31;5058601;28;20052;-81
2023/08/28 07:44:41;;;;;;;5.05;3.38;;;;;;;23.90;51.81;100407.28;5063232;28;20044;-82
2023/08/28 07:47:07;;;;;;;4.65;3.80;;;;;;;24.47;50.54;100410.50;5060266;28;20103;-81
2023/08/28 07:49:34;;;;;;;3.97;3.40;;;;;;;25.06;49.17;100417.00;5060902;28;20055;-81
2023/08/28 07:52:00;;;;;;;5.47;4.43;;;;;;;25.05;48.54;100420.63;5056640;28;20042;-83
2023/08/28 07:54:27;;;;;;;8.20;4.82;;;;;;;25.42;47.65;100417.91;5057444;28;20064;-84
2023/08/28 07:56:53;;;;;;;5.13;4.68;;;;;;;25.36;47.32;100426.44;5055587;28;20033;-82
2023/08/28 07:59:20;;;;;;;4.97;4.53;;;;;;;24.76;48.23;100421.78;5056059;28;20047;-83
2023/08/28 08:01:47;;;;;;;7.32;4.90;;;;;;;23.89;50.90;100418.06;5054372;28;20052;-81
2023/08/28 08:04:13;;;;;;;6.22;4.22;;;;;;;24.48;50.98;100416.69;5065227;28;20047;-85
2023/08/28 08:06:39;;;;;;;5.13;3.90;;;;;;;24.36;50.99;100415.75;5066481;28;20140;-82
2023/08/28 08:09:06;;;;;;;3.33;3.03;;;;;;;24.59;50.31;100414.09;5058414;28;20047;-82
2023/08/28 08:11:33;;;;;;;5.80;3.78;;;;;;;24.91;49.35;100416.28;5063204;28;20048;-82
2023/08/28 08:14:00;;;;;;;6.20;4.53;;;;;;;24.49;50.34;100418.41;5071915;28;20429;-81
2023/08/28 08:16:26;;;;;;;4.55;4.15;;;;;;;24.60;50.57;100407.75;5049087;28;20068;-82
2023/08/28 08:18:53;;;;;;;5.53;3.05;;;;;;;24.58;49.70;100409.72;5044244;28;20049;-84
2023/08/28 08:21:20;;;;;;;4.43;3.67;;;;;;;24.42;49.40;100410.81;5058334;28;20052;-83
2023/08/28 08:23:47;;;;;;;3.47;2.70;;;;;;;25.48;47.62;100408.56;5065942;28;20045;-85
2023/08/28 08:26:14;;;;;;;2.55;2.35;;;;;;;25.49;46.39;100415.63;5065458;28;20488;-84
2023/08/28 08:28:41;;;;;;;4.25;2.53;;;;;;;25.86;45.41;100420.84;5062676;28;20048;-81
2023/08/28 08:31:08;;;;;;;2.88;2.20;;;;;;;25.94;45.42;100421.09;5049835;28;20489;-82
2023/08/28 08:33:34;;;;;;;5.70;2.42;;;;;;;24.97;46.99;100406.97;5069830;28;20055;-82
2023/08/28 08:36:01;;;;;;;2.03;1.92;;;;;;;25.90;45.31;100416.97;5060599;28;20506;-81
2023/08/28 08:38:27;;;;;;;5.50;1.58;;;;;;;26.16;44.04;100420.31;5064534;28;20048;-83
2023/08/28 08:40:55;;;;;;;1.80;1.65;;;;;;;26.32;43.38;100421.78;5049369;28;20676;-82
2023/08/28 08:43:22;;;;;;;2.58;2.45;;;;;;;26.41;42.75;100426.44;5047516;28;20699;-83
2023/08/28 08:45:51;;;;;;;2.50;2.30;;;;;;;25.17;45.60;100424.22;5066578;28;20048;-83
2023/08/28 08:48:20;;;;;;;3.08;1.48;;;;;;;24.94;47.33;100438.34;5052759;28;20496;-81
2023/08/28 08:50:48;;;;;;;5.15;2.55;;;;;;;25.38;45.49;100427.16;5061348;28;20464;-83
2023/08/28 08:53:44;;;;;;;4.80;2.55;;;;;;;25.35;45.02;100422.88;5062970;28;20081;-86
2023/08/28 08:56:16;;;;;;;3.70;2.28;;;;;;;25.88;44.08;100421.59;5062790;28;20527;-83
2023/08/28 08:58:44;;;;;;;3.35;2.75;;;;;;;25.92;44.01;100425.75;5060605;28;20048;-83
2023/08/28 09:01:12;;;;;;;4.00;2.85;;;;;;;23.10;51.04;100426.81;5067148;28;20060;-83
2023/08/28 09:03:39;;;;;;;3.58;1.85;;;;;;;24.39;48.45;100434.22;5065272;28;20389;-81
2023/08/28 09:06:09;;;;;;;2.28;2.10;;;;;;;23.87;49.13;100436.88;5066977;28;20124;-82
2023/08/28 09:08:37;;;;;;;3.72;2.30;;;;;;;23.37;51.15;100430.44;5068840;28;20048;-83
2023/08/28 09:11:05;;;;;;;3.30;3.00;;;;;;;22.42;53.59;100439.13;5059414;28;20431;-82
2023/08/28 09:13:33;;;;;;;2.83;2.45;;;;;;;22.07;54.85;100442.09;5065030;28;20056;-82
2023/08/28 09:15:59;;;;;;;2.85;2.65;;;;;;;21.00;58.88;100439.38;5059701;28;20044;-81
2023/08/28 09:18:26;;;;;;;3.58;2.50;;;;;;;21.38;58.66;100438.13;5039520;28;20139;-82
2023/08/28 09:21:13;;;;;;;3.58;2.72;;;;;;;22.17;55.73;100445.03;5068285;28;20647;-84
2023/08/28 09:23:51;;;;;;;2.90;2.35;;;;;;;22.11;55.78;100448.97;5043155;28;20052;-82
2023/08/28 09:26:21;;;;;;;4.45;2.25;;;;;;;21.71;56.91;100455.81;5063492;28;20154;-84
2023/08/28 09:29:03;;;;;;;3.40;2.58;;;;;;;21.28;59.06;100459.97;5043529;28;20045;-82
2023/08/28 09:31:42;;;;;;;2.80;2.60;;;;;;;21.02;60.18;100450.81;5056804;28;20476;-83
2023/08/28 09:34:09;;;;;;;3.75;2.78;;;;;;;21.13;60.40;100440.41;5053783;28;20079;-82
2023/08/28 09:36:40;;;;;;;2.92;2.22;;;;;;;20.84;61.38;100452.69;5065303;28;20056;-84
2023/08/28 09:39:08;;;;;;;3.13;2.50;;;;;;;20.54;63.02;100457.84;5058383;28;20051;-82
2023/08/28 09:41:44;;;;;;;3.30;2.25;;;;;;;20.20;64.83;100462.31;5059099;28;20059;-83
2023/08/28 09:44:12;;;;;;;3.40;2.67;;;;;;;19.89;67.13;100463.88;5064051;28;20041;-84
2023/08/28 09:46:39;;;;;;;2.38;2.17;;;;;;;20.23;65.39;100467.44;5041273;28;20056;-82
2023/08/28 09:49:06;;;;;;;3.20;2.17;;;;;;;20.71;62.77;100454.31;5065835;28;20136;-82
2023/08/28 09:52:00;;;;;;;4.25;2.13;;;;;;;21.12;60.11;100438.69;5059352;28;20555;-83
2023/08/28 09:54:27;;;;;;;1.80;1.70;;;;;;;21.13;59.87;100428.91;5040982;28;20049;-83
2023/08/28 09:56:53;;;;;;;1.80;1.60;;;;;;;20.90;60.61;100433.72;5061540;28;20072;-83
2023/08/28 09:59:20;;;;;;;1.75;1.65;;;;;;;20.86;60.38;100432.19;5055015;28;20056;-83
2023/08/28 10:01:48;;;;;;;2.13;1.38;;;;;;;20.86;60.12;100425.97;5064564;28;20052;-81
2023/08/28 10:04:15;;;;;;;2.50;1.95;;;;;;;20.97;60.30;100424.44;5065155;28;20124;-82
2023/08/28 10:06:49;;;;;;;2.17;2.10;;;;;;;20.98;60.77;100428.81;5061610;28;20059;-81
2023/08/28 10:09:18;;;;;;;5.00;2.40;;;;;;;20.73;61.59;100429.34;5069875;28;20104;-82
2023/08/28 10:11:46;;;;;;;6.60;2.53;;;;;;;20.39;62.96;100430.25;5060865;28;20047;-81
2023/08/28 10:14:15;;;;;;;1.80;1.70;;;;;;;20.54;62.25;100441.91;5064190;28;20036;-82
2023/08/28 10:16:58;;;;;;;1.95;1.77;;;;;;;20.87;61.43;100438.34;5064361;28;20132;-81
2023/08/28 10:19:43;;;;;;;2.58;2.38;;;;;;;21.57;57.63;100448.63;5061998;28;20033;-81
2023/08/28 10:22:10;;;;;;;2.67;1.20;;;;;;;22.12;56.42;100445.34;5061821;28;20496;-82
2023/08/28 10:24:42;;;;;;;1.45;1.45;;;;;;;22.06;54.58;100443.03;5059987;28;20049;-80
2023/08/28 10:27:10;;;;;;;1.70;1.60;;;;;;;21.85;55.52;100441.66;5061186;28;20037;-81
2023/08/28 10:29:39;;;;;;;1.90;1.70;;;;;;;21.75;57.03;100444.88;5063641;28;20036;-81
2023/08/28 10:32:11;;;;;;;1.95;1.85;;;;;;;21.70;56.08;100449.63;5070349;28;20044;-81
2023/08/28 10:34:39;;;;;;;3.22;1.60;;;;;;;21.38;58.28;100444.34;5058140;28;20036;-83
2023/08/28 10:37:07;;;;;;;1.42;1.35;;;;;;;21.39;58.50;100439.88;5054383;28;20051;-82
2023/08/28 10:39:34;;;;;;;8.07;2.58;;;;;;;21.03;59.20;100441.88;5063042;28;20037;-82
2023/08/28 10:42:01;;;;;;;1.75;1.65;;;;;;;20.62;62.03;100432.56;5058783;28;20040;-81
2023/08/28 10:44:28;;;;;;;5.47;1.30;;;;;;;20.74;60.98;100433.72;5043972;28;20088;-82
2023/08/28 10:46:56;;;;;;;2.58;2.05;;;;;;;20.73;61.33;100426.69;5053213;28;20451;-82
2023/08/28 10:49:22;;;;;;;3.55;2.33;;;;;;;20.90;60.94;100432.84;5061392;28;20477;-82
2023/08/28 10:51:49;;;;;;;3.42;1.67;;;;;;;21.00;59.40;100420.75;5063984;28;20123;-81
2023/08/28 10:54:16;;;;;;;3.78;1.70;;;;;;;21.57;57.21;100417.50;5065981;28;20049;-83
2023/08/28 10:56:54;;;;;;;1.35;0.98;;;;;;;21.91;55.41;100427.97;5061718;28;20123;-82
2023/08/28 10:59:27;;;;;;;3.22;1.13;;;;;;;22.00;55.14;100418.56;5060317;28;20052;-82
2023/08/28 11:01:59;;;;;;;1.73;1.33;;;;;;;21.98;54.97;100416.00;5052576;28;20040;-83
2023/08/28 11:04:37;;;;;;;0.85;0.80;;;;;;;21.75;56.07;100425.38;5056886;28;20360;-83
2023/08/28 11:07:06;;;;;;;1.17;0.95;;;;;;;21.50;56.56;100432.13;5058554;28;20040;-83
2023/08/28 11:09:35;;;;;;;1.95;1.20;;;;;;;21.18;57.11;100428.66;5058739;28;20484;-82
2023/08/28 11:12:04;;;;;;;3.50;1.35;;;;;;;21.15;58.98;100427.88;5057006;28;20067;-82
2023/08/28 11:14:34;;;;;;;2.75;1.00;;;;;;;23.24;51.14;100417.91;5063529;28;20128;-83
2023/08/28 11:17:15;;;;;;;1.65;1.55;;;;;;;24.65;46.15;100420.84;5063648;28;20480;-84
2023/08/28 11:20:01;;;;;;;1.50;1.40;;;;;;;25.66;44.49;100419.72;5056151;28;20755;-82
2023/08/28 11:22:36;;;;;;;1.70;1.00;;;;;;;26.74;41.24;100419.38;5059473;28;20486;-82
2023/08/28 11:25:07;;;;;;;3.20;1.15;;;;;;;25.83;42.73;100424.63;5056658;28;20124;-82